sensor_id;sensor_type;location;lat;lon;timestamp;P1;durP1;ratioP1;P2;durP2;ratioP2
10596;SDS011;5346;48.766;8.674;2023-04-30T00:02:08;10.10;;;8.27;;
10596;SDS011;5346;48.766;8.674;2023-04-30T00:04:36;11.77;;;8.05;;
10596;SDS011;5346;48.766;8.674;2023-04-30T00:07:10;9.47;;;7.87;;
10596;SDS011;5346;48.766;8.674;2023-04-30T00:09:37;11.55;;;8.75;;
10596;SDS011;5346;48.766;8.674;2023-04-30T00:12:12;10.32;;;8.35;;
10596;SDS011;5346;48.766;8.674;2023-04-30T00:14:49;10.55;;;8.07;;
10596;SDS011;5346;48.766;8.674;2023-04-30T00:17:16;10.63;;;7.90;;
10596;SDS011;5346;48.766;8.674;2023-04-30T00:19:57;9.40;;;7.50;;
10596;SDS011;5346;48.766;8.674;2023-04-30T00:22:37;12.30;;;7.75;;
10596;SDS011;5346;48.766;8.674;2023-04-30T00:25:11;10.75;;;7.82;;
10596;SDS011;5346;48.766;8.674;2023-04-30T00:27:40;11.82;;;7.68;;
10596;SDS011;5346;48.766;8.674;2023-04-30T00:30:14;9.73;;;7.50;;
10596;SDS011;5346;48.766;8.674;2023-04-30T00:32:48;9.07;;;7.60;;
10596;SDS011;5346;48.766;8.674;2023-04-30T00:35:15;10.57;;;8.02;;
10596;SDS011;5346;48.766;8.674;2023-04-30T00:37:49;9.10;;;7.37;;
10596;SDS011;5346;48.766;8.674;2023-04-30T00:40:16;10.70;;;8.43;;
10596;SDS011;5346;48.766;8.674;2023-04-30T00:42:43;11.73;;;8.30;;
10596;SDS011;5346;48.766;8.674;2023-04-30T00:45:17;12.87;;;8.20;;
10596;SDS011;5346;48.766;8.674;2023-04-30T00:47:47;10.97;;;7.97;;
10596;SDS011;5346;48.766;8.674;2023-04-30T00:50:23;10.73;;;8.63;;
10596;SDS011;5346;48.766;8.674;2023-04-30T00:52:51;10.10;;;8.23;;
10596;SDS011;5346;48.766;8.674;2023-04-30T00:55:25;11.53;;;8.83;;
10596;SDS011;5346;48.766;8.674;2023-04-30T00:57:58;11.97;;;8.77;;
10596;SDS011;5346;48.766;8.674;2023-04-30T01:00:33;13.00;;;8.57;;
10596;SDS011;5346;48.766;8.674;2023-04-30T01:03:13;12.67;;;9.27;;
10596;SDS011;5346;48.766;8.674;2023-04-30T01:05:48;12.70;;;8.97;;
10596;SDS011;5346;48.766;8.674;2023-04-30T01:08:23;12.30;;;9.03;;
10596;SDS011;5346;48.766;8.674;2023-04-30T01:13:52;13.00;;;9.53;;
10596;SDS011;5346;48.766;8.674;2023-04-30T01:16:42;13.63;;;10.23;;
10596;SDS011;5346;48.766;8.674;2023-04-30T01:19:34;12.77;;;9.93;;
10596;SDS011;5346;48.766;8.674;2023-04-30T01:30:49;15.07;;;10.67;;
10596;SDS011;5346;48.766;8.674;2023-04-30T01:33:23;14.23;;;10.47;;
10596;SDS011;5346;48.766;8.674;2023-04-30T01:36:00;14.63;;;10.67;;
10596;SDS011;5346;48.766;8.674;2023-04-30T01:41:34;14.87;;;10.10;;
10596;SDS011;5346;48.766;8.674;2023-04-30T01:47:38;15.77;;;10.73;;
10596;SDS011;5346;48.766;8.674;2023-04-30T01:50:43;17.20;;;10.63;;
10596;SDS011;5346;48.766;8.674;2023-04-30T01:53:22;15.17;;;10.80;;
10596;SDS011;5346;48.766;8.674;2023-04-30T01:56:34;14.43;;;11.07;;
10596;SDS011;5346;48.766;8.674;2023-04-30T01:59:13;15.20;;;11.10;;
10596;SDS011;5346;48.766;8.674;2023-04-30T02:01:48;17.03;;;10.90;;
10596;SDS011;5346;48.766;8.674;2023-04-30T02:04:28;17.90;;;11.23;;
10596;SDS011;5346;48.766;8.674;2023-04-30T02:07:05;18.77;;;12.23;;
10596;SDS011;5346;48.766;8.674;2023-04-30T02:09:33;16.03;;;12.10;;
10596;SDS011;5346;48.766;8.674;2023-04-30T02:12:06;17.40;;;11.83;;
10596;SDS011;5346;48.766;8.674;2023-04-30T02:14:40;16.30;;;12.47;;
10596;SDS011;5346;48.766;8.674;2023-04-30T02:17:14;17.40;;;12.07;;
10596;SDS011;5346;48.766;8.674;2023-04-30T02:19:41;19.57;;;13.30;;
10596;SDS011;5346;48.766;8.674;2023-04-30T02:22:15;17.33;;;12.33;;
10596;SDS011;5346;48.766;8.674;2023-04-30T02:24:42;15.77;;;11.60;;
10596;SDS011;5346;48.766;8.674;2023-04-30T02:27:16;17.13;;;11.87;;
10596;SDS011;5346;48.766;8.674;2023-04-30T02:29:43;20.53;;;13.13;;
10596;SDS011;5346;48.766;8.674;2023-04-30T02:32:17;17.43;;;12.70;;
10596;SDS011;5346;48.766;8.674;2023-04-30T02:34:51;16.07;;;12.60;;
10596;SDS011;5346;48.766;8.674;2023-04-30T02:37:25;19.00;;;12.80;;
10596;SDS011;5346;48.766;8.674;2023-04-30T02:39:59;23.17;;;13.67;;
10596;SDS011;5346;48.766;8.674;2023-04-30T02:42:26;17.50;;;13.37;;
10596;SDS011;5346;48.766;8.674;2023-04-30T02:45:00;18.97;;;13.30;;
10596;SDS011;5346;48.766;8.674;2023-04-30T02:47:27;20.23;;;13.83;;
10596;SDS011;5346;48.766;8.674;2023-04-30T02:50:01;19.33;;;12.50;;
10596;SDS011;5346;48.766;8.674;2023-04-30T02:52:37;21.27;;;13.90;;
10596;SDS011;5346;48.766;8.674;2023-04-30T02:55:13;19.97;;;13.57;;
10596;SDS011;5346;48.766;8.674;2023-04-30T02:57:47;24.20;;;14.50;;
10596;SDS011;5346;48.766;8.674;2023-04-30T03:00:14;21.73;;;14.50;;
10596;SDS011;5346;48.766;8.674;2023-04-30T03:02:42;20.73;;;14.67;;
10596;SDS011;5346;48.766;8.674;2023-04-30T03:05:16;22.43;;;14.30;;
10596;SDS011;5346;48.766;8.674;2023-04-30T03:07:50;21.03;;;13.83;;
10596;SDS011;5346;48.766;8.674;2023-04-30T03:10:24;19.53;;;13.87;;
10596;SDS011;5346;48.766;8.674;2023-04-30T03:12:51;20.67;;;14.40;;
10596;SDS011;5346;48.766;8.674;2023-04-30T03:15:26;20.33;;;13.60;;
10596;SDS011;5346;48.766;8.674;2023-04-30T03:18:00;22.07;;;14.37;;
10596;SDS011;5346;48.766;8.674;2023-04-30T03:20:34;23.87;;;16.13;;
10596;SDS011;5346;48.766;8.674;2023-04-30T03:23:01;26.90;;;17.03;;
10596;SDS011;5346;48.766;8.674;2023-04-30T03:25:35;20.03;;;14.47;;
10596;SDS011;5346;48.766;8.674;2023-04-30T03:28:09;21.70;;;15.10;;
10596;SDS011;5346;48.766;8.674;2023-04-30T03:30:36;23.10;;;15.30;;
10596;SDS011;5346;48.766;8.674;2023-04-30T03:33:10;27.67;;;17.13;;
10596;SDS011;5346;48.766;8.674;2023-04-30T03:35:44;24.43;;;16.37;;
10596;SDS011;5346;48.766;8.674;2023-04-30T03:38:18;27.20;;;17.20;;
10596;SDS011;5346;48.766;8.674;2023-04-30T03:40:52;24.33;;;16.33;;
10596;SDS011;5346;48.766;8.674;2023-04-30T03:43:26;26.07;;;17.03;;
10596;SDS011;5346;48.766;8.674;2023-04-30T03:46:00;26.73;;;16.60;;
10596;SDS011;5346;48.766;8.674;2023-04-30T03:48:27;28.43;;;16.80;;
10596;SDS011;5346;48.766;8.674;2023-04-30T03:51:01;23.57;;;16.17;;
10596;SDS011;5346;48.766;8.674;2023-04-30T03:53:35;30.77;;;17.03;;
10596;SDS011;5346;48.766;8.674;2023-04-30T03:56:09;28.67;;;16.57;;
10596;SDS011;5346;48.766;8.674;2023-04-30T03:58:36;29.30;;;17.87;;
10596;SDS011;5346;48.766;8.674;2023-04-30T04:01:10;26.47;;;15.93;;
10596;SDS011;5346;48.766;8.674;2023-04-30T04:03:50;22.00;;;15.47;;
10596;SDS011;5346;48.766;8.674;2023-04-30T04:06:32;23.53;;;15.17;;
10596;SDS011;5346;48.766;8.674;2023-04-30T04:09:06;27.47;;;16.20;;
10596;SDS011;5346;48.766;8.674;2023-04-30T04:11:33;22.53;;;15.70;;
10596;SDS011;5346;48.766;8.674;2023-04-30T04:14:07;21.67;;;15.33;;
10596;SDS011;5346;48.766;8.674;2023-04-30T04:16:36;25.50;;;15.63;;
10596;SDS011;5346;48.766;8.674;2023-04-30T04:19:10;24.20;;;16.00;;
10596;SDS011;5346;48.766;8.674;2023-04-30T04:21:38;21.50;;;15.13;;
10596;SDS011;5346;48.766;8.674;2023-04-30T04:24:12;21.63;;;14.93;;
10596;SDS011;5346;48.766;8.674;2023-04-30T04:26:46;22.03;;;15.57;;
10596;SDS011;5346;48.766;8.674;2023-04-30T04:29:20;22.63;;;15.73;;
10596;SDS011;5346;48.766;8.674;2023-04-30T04:31:47;28.27;;;17.87;;
10596;SDS011;5346;48.766;8.674;2023-04-30T04:34:24;28.23;;;18.13;;
10596;SDS011;5346;48.766;8.674;2023-04-30T04:36:52;29.87;;;18.00;;
10596;SDS011;5346;48.766;8.674;2023-04-30T04:39:27;25.40;;;16.77;;
10596;SDS011;5346;48.766;8.674;2023-04-30T04:41:54;26.80;;;17.60;;
10596;SDS011;5346;48.766;8.674;2023-04-30T04:44:22;23.80;;;16.73;;
10596;SDS011;5346;48.766;8.674;2023-04-30T04:47:01;25.73;;;17.13;;
10596;SDS011;5346;48.766;8.674;2023-04-30T04:49:29;25.00;;;17.23;;
10596;SDS011;5346;48.766;8.674;2023-04-30T04:52:03;29.00;;;18.50;;
10596;SDS011;5346;48.766;8.674;2023-04-30T04:54:37;24.50;;;17.07;;
10596;SDS011;5346;48.766;8.674;2023-04-30T04:57:11;25.67;;;17.90;;
10596;SDS011;5346;48.766;8.674;2023-04-30T04:59:45;25.93;;;16.97;;
10596;SDS011;5346;48.766;8.674;2023-04-30T05:02:12;24.10;;;16.87;;
10596;SDS011;5346;48.766;8.674;2023-04-30T05:04:46;27.17;;;18.07;;
10596;SDS011;5346;48.766;8.674;2023-04-30T05:07:16;21.77;;;16.87;;
10596;SDS011;5346;48.766;8.674;2023-04-30T05:09:50;23.63;;;17.03;;
10596;SDS011;5346;48.766;8.674;2023-04-30T05:12:24;23.47;;;15.90;;
10596;SDS011;5346;48.766;8.674;2023-04-30T05:14:53;23.27;;;17.23;;
10596;SDS011;5346;48.766;8.674;2023-04-30T05:17:27;25.77;;;17.67;;
10596;SDS011;5346;48.766;8.674;2023-04-30T05:20:05;24.33;;;16.73;;
10596;SDS011;5346;48.766;8.674;2023-04-30T05:22:53;24.60;;;17.13;;
10596;SDS011;5346;48.766;8.674;2023-04-30T05:25:22;27.77;;;17.70;;
10596;SDS011;5346;48.766;8.674;2023-04-30T05:27:56;26.03;;;16.43;;
10596;SDS011;5346;48.766;8.674;2023-04-30T05:30:24;21.87;;;16.43;;
10596;SDS011;5346;48.766;8.674;2023-04-30T05:32:59;21.63;;;16.33;;
10596;SDS011;5346;48.766;8.674;2023-04-30T05:35:33;22.83;;;16.70;;
10596;SDS011;5346;48.766;8.674;2023-04-30T05:38:01;22.70;;;16.30;;
10596;SDS011;5346;48.766;8.674;2023-04-30T05:40:36;22.60;;;16.53;;
10596;SDS011;5346;48.766;8.674;2023-04-30T05:43:11;21.53;;;16.47;;
10596;SDS011;5346;48.766;8.674;2023-04-30T05:45:45;21.07;;;14.90;;
10596;SDS011;5346;48.766;8.674;2023-04-30T05:48:26;23.17;;;16.00;;
10596;SDS011;5346;48.766;8.674;2023-04-30T05:51:00;22.70;;;16.23;;
10596;SDS011;5346;48.766;8.674;2023-04-30T05:53:27;26.00;;;16.73;;
10596;SDS011;5346;48.766;8.674;2023-04-30T05:56:02;22.10;;;15.27;;
10596;SDS011;5346;48.766;8.674;2023-04-30T05:58:29;19.17;;;15.27;;
10596;SDS011;5346;48.766;8.674;2023-04-30T06:01:03;23.33;;;15.83;;
10596;SDS011;5346;48.766;8.674;2023-04-30T06:03:37;20.50;;;14.93;;
10596;SDS011;5346;48.766;8.674;2023-04-30T06:06:11;17.40;;;13.40;;
10596;SDS011;5346;48.766;8.674;2023-04-30T06:08:45;18.23;;;13.68;;
10596;SDS011;5346;48.766;8.674;2023-04-30T06:11:19;14.50;;;11.52;;
10596;SDS011;5346;48.766;8.674;2023-04-30T06:13:47;17.50;;;12.82;;
10596;SDS011;5346;48.766;8.674;2023-04-30T06:16:21;14.38;;;11.93;;
10596;SDS011;5346;48.766;8.674;2023-04-30T06:18:49;13.65;;;11.48;;
10596;SDS011;5346;48.766;8.674;2023-04-30T06:21:22;14.85;;;10.60;;
10596;SDS011;5346;48.766;8.674;2023-04-30T06:23:58;13.82;;;11.13;;
10596;SDS011;5346;48.766;8.674;2023-04-30T06:26:35;15.35;;;10.90;;
10596;SDS011;5346;48.766;8.674;2023-04-30T06:29:04;17.27;;;10.68;;
10596;SDS011;5346;48.766;8.674;2023-04-30T06:31:38;15.63;;;11.68;;
10596;SDS011;5346;48.766;8.674;2023-04-30T06:34:15;15.88;;;11.38;;
10596;SDS011;5346;48.766;8.674;2023-04-30T06:36:49;15.90;;;11.57;;
10596;SDS011;5346;48.766;8.674;2023-04-30T06:39:16;13.23;;;11.55;;
10596;SDS011;5346;48.766;8.674;2023-04-30T06:41:50;14.13;;;10.95;;
10596;SDS011;5346;48.766;8.674;2023-04-30T06:44:17;16.25;;;12.00;;
10596;SDS011;5346;48.766;8.674;2023-04-30T06:46:44;14.45;;;11.85;;
10596;SDS011;5346;48.766;8.674;2023-04-30T06:49:20;13.90;;;11.07;;
10596;SDS011;5346;48.766;8.674;2023-04-30T06:51:47;13.52;;;11.07;;
10596;SDS011;5346;48.766;8.674;2023-04-30T06:54:21;12.98;;;10.52;;
10596;SDS011;5346;48.766;8.674;2023-04-30T06:56:48;12.75;;;10.35;;
10596;SDS011;5346;48.766;8.674;2023-04-30T06:59:22;13.52;;;10.38;;
10596;SDS011;5346;48.766;8.674;2023-04-30T07:01:57;13.88;;;9.98;;
10596;SDS011;5346;48.766;8.674;2023-04-30T07:04:33;12.00;;;10.23;;
10596;SDS011;5346;48.766;8.674;2023-04-30T07:07:06;11.65;;;10.43;;
10596;SDS011;5346;48.766;8.674;2023-04-30T07:09:44;13.23;;;10.27;;
10596;SDS011;5346;48.766;8.674;2023-04-30T07:12:11;13.93;;;11.10;;
10596;SDS011;5346;48.766;8.674;2023-04-30T07:14:47;14.00;;;10.77;;
10596;SDS011;5346;48.766;8.674;2023-04-30T07:17:26;12.93;;;10.85;;
10596;SDS011;5346;48.766;8.674;2023-04-30T07:20:04;12.00;;;10.35;;
10596;SDS011;5346;48.766;8.674;2023-04-30T07:22:44;11.27;;;9.73;;
10596;SDS011;5346;48.766;8.674;2023-04-30T07:25:15;12.27;;;10.80;;
10596;SDS011;5346;48.766;8.674;2023-04-30T07:27:50;12.60;;;10.10;;
10596;SDS011;5346;48.766;8.674;2023-04-30T07:30:19;11.75;;;9.73;;
10596;SDS011;5346;48.766;8.674;2023-04-30T07:32:57;13.15;;;9.55;;
10596;SDS011;5346;48.766;8.674;2023-04-30T07:35:30;11.15;;;9.65;;
10596;SDS011;5346;48.766;8.674;2023-04-30T07:38:04;12.75;;;10.75;;
10596;SDS011;5346;48.766;8.674;2023-04-30T07:40:41;11.93;;;9.65;;
10596;SDS011;5346;48.766;8.674;2023-04-30T07:43:16;12.82;;;9.73;;
10596;SDS011;5346;48.766;8.674;2023-04-30T07:45:50;12.50;;;9.70;;
10596;SDS011;5346;48.766;8.674;2023-04-30T07:48:26;17.85;;;10.02;;
10596;SDS011;5346;48.766;8.674;2023-04-30T07:51:07;12.20;;;9.35;;
10596;SDS011;5346;48.766;8.674;2023-04-30T07:53:42;10.63;;;9.50;;
10596;SDS011;5346;48.766;8.674;2023-04-30T07:56:09;10.30;;;9.23;;
10596;SDS011;5346;48.766;8.674;2023-04-30T07:58:44;11.13;;;8.77;;
10596;SDS011;5346;48.766;8.674;2023-04-30T08:01:12;10.93;;;9.05;;
10596;SDS011;5346;48.766;8.674;2023-04-30T08:03:46;11.05;;;8.65;;
10596;SDS011;5346;48.766;8.674;2023-04-30T08:06:22;13.30;;;9.25;;
10596;SDS011;5346;48.766;8.674;2023-04-30T08:08:59;9.77;;;8.45;;
10596;SDS011;5346;48.766;8.674;2023-04-30T08:11:35;9.55;;;8.20;;
10596;SDS011;5346;48.766;8.674;2023-04-30T08:14:09;11.90;;;9.00;;
10596;SDS011;5346;48.766;8.674;2023-04-30T08:16:37;9.32;;;8.32;;
10596;SDS011;5346;48.766;8.674;2023-04-30T08:19:12;10.45;;;8.75;;
10596;SDS011;5346;48.766;8.674;2023-04-30T08:21:46;10.82;;;8.25;;
10596;SDS011;5346;48.766;8.674;2023-04-30T08:24:23;9.52;;;8.07;;
10596;SDS011;5346;48.766;8.674;2023-04-30T08:26:50;9.57;;;7.80;;
10596;SDS011;5346;48.766;8.674;2023-04-30T08:29:26;8.98;;;8.05;;
10596;SDS011;5346;48.766;8.674;2023-04-30T08:31:54;9.73;;;7.28;;
10596;SDS011;5346;48.766;8.674;2023-04-30T08:34:28;7.68;;;6.85;;
10596;SDS011;5346;48.766;8.674;2023-04-30T08:36:56;8.07;;;6.85;;
10596;SDS011;5346;48.766;8.674;2023-04-30T08:39:32;9.50;;;7.35;;
10596;SDS011;5346;48.766;8.674;2023-04-30T08:42:07;6.95;;;5.47;;
10596;SDS011;5346;48.766;8.674;2023-04-30T08:44:45;5.43;;;4.93;;
10596;SDS011;5346;48.766;8.674;2023-04-30T08:47:26;7.82;;;5.63;;
10596;SDS011;5346;48.766;8.674;2023-04-30T08:49:55;7.47;;;4.93;;
10596;SDS011;5346;48.766;8.674;2023-04-30T08:52:30;4.88;;;4.38;;
10596;SDS011;5346;48.766;8.674;2023-04-30T08:55:01;5.45;;;4.90;;
10596;SDS011;5346;48.766;8.674;2023-04-30T08:57:42;5.80;;;4.72;;
10596;SDS011;5346;48.766;8.674;2023-04-30T09:00:09;5.32;;;4.82;;
10596;SDS011;5346;48.766;8.674;2023-04-30T09:02:45;5.25;;;4.75;;
10596;SDS011;5346;48.766;8.674;2023-04-30T09:05:21;5.70;;;4.97;;
10596;SDS011;5346;48.766;8.674;2023-04-30T09:07:48;5.88;;;4.78;;
10596;SDS011;5346;48.766;8.674;2023-04-30T09:10:26;4.68;;;4.00;;
10596;SDS011;5346;48.766;8.674;2023-04-30T09:13:04;4.55;;;3.90;;
10596;SDS011;5346;48.766;8.674;2023-04-30T09:15:40;3.80;;;3.40;;
10596;SDS011;5346;48.766;8.674;2023-04-30T09:18:16;5.78;;;3.10;;
10596;SDS011;5346;48.766;8.674;2023-04-30T09:20:57;3.97;;;3.30;;
10596;SDS011;5346;48.766;8.674;2023-04-30T09:23:29;4.55;;;3.90;;
10596;SDS011;5346;48.766;8.674;2023-04-30T09:26:03;4.50;;;4.10;;
10596;SDS011;5346;48.766;8.674;2023-04-30T09:28:31;5.18;;;3.97;;
10596;SDS011;5346;48.766;8.674;2023-04-30T09:31:05;4.82;;;4.20;;
10596;SDS011;5346;48.766;8.674;2023-04-30T09:33:48;5.32;;;3.95;;
10596;SDS011;5346;48.766;8.674;2023-04-30T09:36:22;5.13;;;4.22;;
10596;SDS011;5346;48.766;8.674;2023-04-30T09:38:50;4.43;;;3.90;;
10596;SDS011;5346;48.766;8.674;2023-04-30T09:43:59;5.80;;;4.75;;
10596;SDS011;5346;48.766;8.674;2023-04-30T09:46:32;5.63;;;5.07;;
10596;SDS011;5346;48.766;8.674;2023-04-30T09:49:09;7.18;;;5.00;;
10596;SDS011;5346;48.766;8.674;2023-04-30T09:51:52;6.93;;;5.30;;
10596;SDS011;5346;48.766;8.674;2023-04-30T09:54:31;9.05;;;5.10;;
10596;SDS011;5346;48.766;8.674;2023-04-30T09:56:59;9.02;;;5.40;;
10596;SDS011;5346;48.766;8.674;2023-04-30T09:59:35;5.85;;;5.25;;
10596;SDS011;5346;48.766;8.674;2023-04-30T10:02:06;5.60;;;5.05;;
10596;SDS011;5346;48.766;8.674;2023-04-30T10:04:42;7.93;;;5.32;;
10596;SDS011;5346;48.766;8.674;2023-04-30T10:07:19;8.45;;;5.07;;
10596;SDS011;5346;48.766;8.674;2023-04-30T10:09:49;7.95;;;5.20;;
10596;SDS011;5346;48.766;8.674;2023-04-30T10:12:53;5.75;;;4.95;;
10596;SDS011;5346;48.766;8.674;2023-04-30T10:15:47;5.43;;;4.90;;
10596;SDS011;5346;48.766;8.674;2023-04-30T10:18:38;5.40;;;4.82;;
10596;SDS011;5346;48.766;8.674;2023-04-30T10:21:16;5.32;;;4.53;;
10596;SDS011;5346;48.766;8.674;2023-04-30T10:23:54;4.47;;;4.07;;
10596;SDS011;5346;48.766;8.674;2023-04-30T10:26:29;6.03;;;4.32;;
10596;SDS011;5346;48.766;8.674;2023-04-30T10:28:59;5.82;;;4.30;;
10596;SDS011;5346;48.766;8.674;2023-04-30T10:31:34;8.40;;;3.97;;
10596;SDS011;5346;48.766;8.674;2023-04-30T10:34:17;5.32;;;4.22;;
10596;SDS011;5346;48.766;8.674;2023-04-30T10:40:19;4.88;;;4.38;;
10596;SDS011;5346;48.766;8.674;2023-04-30T10:42:48;4.93;;;4.30;;
10596;SDS011;5346;48.766;8.674;2023-04-30T10:45:35;3.78;;;3.47;;
10596;SDS011;5346;48.766;8.674;2023-04-30T10:48:18;4.05;;;3.10;;
10596;SDS011;5346;48.766;8.674;2023-04-30T10:50:58;4.10;;;3.65;;
10596;SDS011;5346;48.766;8.674;2023-04-30T10:53:28;3.72;;;3.25;;
10596;SDS011;5346;48.766;8.674;2023-04-30T10:56:03;5.60;;;3.47;;
10596;SDS011;5346;48.766;8.674;2023-04-30T10:58:38;5.05;;;3.38;;
10596;SDS011;5346;48.766;8.674;2023-04-30T11:01:14;3.80;;;3.40;;
10596;SDS011;5346;48.766;8.674;2023-04-30T11:04:09;5.10;;;3.95;;
10596;SDS011;5346;48.766;8.674;2023-04-30T11:09:42;5.93;;;3.45;;
10596;SDS011;5346;48.766;8.674;2023-04-30T11:12:21;5.70;;;3.65;;
10596;SDS011;5346;48.766;8.674;2023-04-30T11:15:10;3.45;;;3.15;;
10596;SDS011;5346;48.766;8.674;2023-04-30T11:17:40;4.10;;;3.70;;
10596;SDS011;5346;48.766;8.674;2023-04-30T11:20:28;4.25;;;3.83;;
10596;SDS011;5346;48.766;8.674;2023-04-30T11:23:12;4.47;;;4.05;;
10596;SDS011;5346;48.766;8.674;2023-04-30T11:26:07;6.05;;;3.95;;
10596;SDS011;5346;48.766;8.674;2023-04-30T11:28:36;5.45;;;4.50;;
10596;SDS011;5346;48.766;8.674;2023-04-30T11:31:11;3.78;;;3.42;;
10596;SDS011;5346;48.766;8.674;2023-04-30T11:33:41;4.30;;;3.65;;
10596;SDS011;5346;48.766;8.674;2023-04-30T11:36:18;4.00;;;3.60;;
10596;SDS011;5346;48.766;8.674;2023-04-30T11:38:46;4.10;;;3.40;;
10596;SDS011;5346;48.766;8.674;2023-04-30T11:41:20;3.90;;;3.58;;
10596;SDS011;5346;48.766;8.674;2023-04-30T11:43:54;5.07;;;2.95;;
10596;SDS011;5346;48.766;8.674;2023-04-30T11:46:34;3.92;;;3.38;;
10596;SDS011;5346;48.766;8.674;2023-04-30T11:49:16;5.65;;;2.95;;
10596;SDS011;5346;48.766;8.674;2023-04-30T11:51:52;3.95;;;3.47;;
10596;SDS011;5346;48.766;8.674;2023-04-30T11:54:20;3.63;;;3.28;;
10596;SDS011;5346;48.766;8.674;2023-04-30T11:56:55;3.72;;;3.33;;
10596;SDS011;5346;48.766;8.674;2023-04-30T11:59:30;5.78;;;3.78;;
10596;SDS011;5346;48.766;8.674;2023-04-30T12:02:15;7.80;;;3.38;;
10596;SDS011;5346;48.766;8.674;2023-04-30T12:04:50;4.70;;;3.80;;
10596;SDS011;5346;48.766;8.674;2023-04-30T12:07:18;4.20;;;3.50;;
10596;SDS011;5346;48.766;8.674;2023-04-30T12:09:54;5.22;;;4.40;;
10596;SDS011;5346;48.766;8.674;2023-04-30T12:12:27;4.65;;;4.10;;
10596;SDS011;5346;48.766;8.674;2023-04-30T12:15:10;5.72;;;4.85;;
10596;SDS011;5346;48.766;8.674;2023-04-30T12:17:56;6.50;;;4.20;;
10596;SDS011;5346;48.766;8.674;2023-04-30T12:20:26;4.38;;;3.60;;
10596;SDS011;5346;48.766;8.674;2023-04-30T12:23:02;6.68;;;3.83;;
10596;SDS011;5346;48.766;8.674;2023-04-30T12:25:38;7.45;;;3.88;;
10596;SDS011;5346;48.766;8.674;2023-04-30T12:32:31;4.55;;;4.00;;
10596;SDS011;5346;48.766;8.674;2023-04-30T12:35:14;4.55;;;4.10;;
10596;SDS011;5346;48.766;8.674;2023-04-30T12:38:00;4.00;;;3.70;;
10596;SDS011;5346;48.766;8.674;2023-04-30T12:40:39;4.20;;;3.80;;
10596;SDS011;5346;48.766;8.674;2023-04-30T12:43:16;4.50;;;4.10;;
10596;SDS011;5346;48.766;8.674;2023-04-30T12:45:57;25.38;;;12.93;;
10596;SDS011;5346;48.766;8.674;2023-04-30T12:48:42;5.03;;;4.38;;
10596;SDS011;5346;48.766;8.674;2023-04-30T12:51:19;5.05;;;4.00;;
10596;SDS011;5346;48.766;8.674;2023-04-30T12:53:53;5.22;;;3.95;;
10596;SDS011;5346;48.766;8.674;2023-04-30T12:56:31;4.57;;;3.85;;
10596;SDS011;5346;48.766;8.674;2023-04-30T12:58:59;6.35;;;3.38;;
10596;SDS011;5346;48.766;8.674;2023-04-30T13:01:33;5.22;;;3.67;;
10596;SDS011;5346;48.766;8.674;2023-04-30T13:04:19;4.00;;;3.47;;
10596;SDS011;5346;48.766;8.674;2023-04-30T13:06:53;4.90;;;3.67;;
10596;SDS011;5346;48.766;8.674;2023-04-30T13:09:20;4.50;;;3.60;;
10596;SDS011;5346;48.766;8.674;2023-04-30T13:11:54;3.83;;;3.42;;
10596;SDS011;5346;48.766;8.674;2023-04-30T13:14:21;5.10;;;3.65;;
10596;SDS011;5346;48.766;8.674;2023-04-30T13:16:55;3.83;;;3.42;;
10596;SDS011;5346;48.766;8.674;2023-04-30T13:19:22;4.20;;;3.50;;
10596;SDS011;5346;48.766;8.674;2023-04-30T13:21:49;3.50;;;3.20;;
10596;SDS011;5346;48.766;8.674;2023-04-30T13:24:23;4.55;;;3.35;;
10596;SDS011;5346;48.766;8.674;2023-04-30T13:26:58;3.50;;;3.20;;
10596;SDS011;5346;48.766;8.674;2023-04-30T13:29:32;3.65;;;3.30;;
10596;SDS011;5346;48.766;8.674;2023-04-30T13:31:59;4.90;;;4.13;;
10596;SDS011;5346;48.766;8.674;2023-04-30T13:34:34;4.63;;;3.78;;
10596;SDS011;5346;48.766;8.674;2023-04-30T13:37:01;3.90;;;3.42;;
10596;SDS011;5346;48.766;8.674;2023-04-30T13:39:35;3.90;;;3.50;;
10596;SDS011;5346;48.766;8.674;2023-04-30T13:42:02;4.63;;;4.13;;
10596;SDS011;5346;48.766;8.674;2023-04-30T13:44:36;6.00;;;4.57;;
10596;SDS011;5346;48.766;8.674;2023-04-30T13:47:17;11.77;;;7.03;;
10596;SDS011;5346;48.766;8.674;2023-04-30T13:49:51;13.45;;;6.75;;
10596;SDS011;5346;48.766;8.674;2023-04-30T13:52:32;5.45;;;4.22;;
10596;SDS011;5346;48.766;8.674;2023-04-30T13:55:06;6.75;;;4.05;;
10596;SDS011;5346;48.766;8.674;2023-04-30T13:57:34;9.43;;;5.47;;
10596;SDS011;5346;48.766;8.674;2023-04-30T14:00:08;7.78;;;5.40;;
10596;SDS011;5346;48.766;8.674;2023-04-30T14:02:36;6.72;;;4.03;;
10596;SDS011;5346;48.766;8.674;2023-04-30T14:05:03;9.68;;;5.50;;
10596;SDS011;5346;48.766;8.674;2023-04-30T14:07:37;8.90;;;4.93;;
10596;SDS011;5346;48.766;8.674;2023-04-30T14:10:04;3.83;;;3.40;;
10596;SDS011;5346;48.766;8.674;2023-04-30T14:12:39;8.85;;;4.35;;
10596;SDS011;5346;48.766;8.674;2023-04-30T14:15:13;8.07;;;5.18;;
10596;SDS011;5346;48.766;8.674;2023-04-30T14:17:47;8.70;;;5.38;;
10596;SDS011;5346;48.766;8.674;2023-04-30T14:20:21;4.60;;;3.70;;
10596;SDS011;5346;48.766;8.674;2023-04-30T14:22:55;3.90;;;3.50;;
10596;SDS011;5346;48.766;8.674;2023-04-30T14:25:30;3.15;;;2.85;;
10596;SDS011;5346;48.766;8.674;2023-04-30T14:28:04;4.40;;;3.22;;
10596;SDS011;5346;48.766;8.674;2023-04-30T14:30:38;4.68;;;3.00;;
10596;SDS011;5346;48.766;8.674;2023-04-30T14:33:12;3.97;;;3.30;;
10596;SDS011;5346;48.766;8.674;2023-04-30T14:35:40;4.47;;;3.75;;
10596;SDS011;5346;48.766;8.674;2023-04-30T14:38:13;12.27;;;7.80;;
10596;SDS011;5346;48.766;8.674;2023-04-30T14:40:48;5.40;;;4.13;;
10596;SDS011;5346;48.766;8.674;2023-04-30T14:43:22;4.47;;;3.33;;
10596;SDS011;5346;48.766;8.674;2023-04-30T14:45:56;4.57;;;3.17;;
10596;SDS011;5346;48.766;8.674;2023-04-30T14:48:37;4.13;;;3.72;;
10596;SDS011;5346;48.766;8.674;2023-04-30T14:51:10;3.58;;;3.28;;
10596;SDS011;5346;48.766;8.674;2023-04-30T14:53:44;4.18;;;3.63;;
10596;SDS011;5346;48.766;8.674;2023-04-30T14:56:11;4.75;;;3.40;;
10596;SDS011;5346;48.766;8.674;2023-04-30T14:58:38;3.53;;;3.15;;
10596;SDS011;5346;48.766;8.674;2023-04-30T15:01:12;3.67;;;3.08;;
10596;SDS011;5346;48.766;8.674;2023-04-30T15:03:46;4.43;;;3.25;;
10596;SDS011;5346;48.766;8.674;2023-04-30T15:06:20;3.50;;;3.17;;
10596;SDS011;5346;48.766;8.674;2023-04-30T15:08:47;4.28;;;3.88;;
10596;SDS011;5346;48.766;8.674;2023-04-30T15:11:15;10.13;;;8.32;;
10596;SDS011;5346;48.766;8.674;2023-04-30T15:13:52;5.90;;;4.82;;
10596;SDS011;5346;48.766;8.674;2023-04-30T15:16:27;7.13;;;3.70;;
10596;SDS011;5346;48.766;8.674;2023-04-30T15:19:01;3.50;;;3.20;;
10596;SDS011;5346;48.766;8.674;2023-04-30T15:21:29;3.35;;;3.05;;
10596;SDS011;5346;48.766;8.674;2023-04-30T15:24:03;3.00;;;2.78;;
10596;SDS011;5346;48.766;8.674;2023-04-30T15:26:31;3.47;;;3.17;;
10596;SDS011;5346;48.766;8.674;2023-04-30T15:29:04;5.30;;;4.40;;
10596;SDS011;5346;48.766;8.674;2023-04-30T15:31:45;7.43;;;4.97;;
10596;SDS011;5346;48.766;8.674;2023-04-30T15:34:19;3.55;;;3.10;;
10596;SDS011;5346;48.766;8.674;2023-04-30T15:36:48;4.40;;;3.25;;
10596;SDS011;5346;48.766;8.674;2023-04-30T15:39:16;3.60;;;3.00;;
10596;SDS011;5346;48.766;8.674;2023-04-30T15:41:50;7.47;;;5.00;;
10596;SDS011;5346;48.766;8.674;2023-04-30T15:44:17;3.85;;;3.45;;
10596;SDS011;5346;48.766;8.674;2023-04-30T15:46:45;5.28;;;3.47;;
10596;SDS011;5346;48.766;8.674;2023-04-30T15:49:20;7.00;;;4.57;;
10596;SDS011;5346;48.766;8.674;2023-04-30T15:51:54;5.50;;;4.50;;
10596;SDS011;5346;48.766;8.674;2023-04-30T15:54:35;3.88;;;2.97;;
10596;SDS011;5346;48.766;8.674;2023-04-30T15:57:03;4.57;;;3.40;;
10596;SDS011;5346;48.766;8.674;2023-04-30T15:59:37;3.35;;;2.92;;
10596;SDS011;5346;48.766;8.674;2023-04-30T16:02:31;3.80;;;3.33;;